Time;durP1;ratioP1;P1;durP2;ratioP2;P2;SDS_P1;SDS_P2;PMS_P1;PMS_P2;Temp;Humidity;BMP_temperature;BMP_pressure;BME280_temperature;BME280_humidity;BME280_pressure;Samples;Min_cycle;Max_cycle;Signal;HPM_P1;HPM_P2
2021/03/11 00:00:28;;;;;;;28.08;17.35;;;;;;;6.82;98.89;99920.38;5203681;28;20064;-76
2021/03/11 00:02:58;;;;;;;27.92;16.98;;;;;;;6.88;99.06;99911.50;5203543;28;20033;-77
2021/03/11 00:05:28;;;;;;;26.27;16.70;;;;;;;6.80;100.00;99918.72;5203562;28;20037;-75
2021/03/11 00:07:59;;;;;;;30.58;16.60;;;;;;;6.72;100.00;99898.16;5200787;28;20537;-76
2021/03/11 00:10:30;;;;;;;29.13;17.27;;;;;;;6.64;100.00;99894.09;5203761;28;20036;-77
2021/03/11 00:13:01;;;;;;;29.38;18.10;;;;;;;6.62;100.00;99898.50;5211413;28;20025;-77
2021/03/11 00:15:32;;;;;;;33.08;18.73;;;;;;;6.46;100.00;99889.47;5222006;28;20025;-76
2021/03/11 00:18:07;;;;;;;30.48;18.67;;;;;;;6.45;100.00;99873.03;5222153;28;20031;-77
2021/03/11 00:20:38;;;;;;;31.85;18.65;;;;;;;6.43;100.00;99868.81;5221675;28;20366;-76
2021/03/11 00:23:09;;;;;;;34.20;19.20;;;;;;;6.40;100.00;99863.72;5215924;28;20091;-76
2021/03/11 00:25:39;;;;;;;27.40;17.83;;;;;;;6.35;100.00;99855.19;5201404;28;20037;-77
2021/03/11 00:28:09;;;;;;;31.13;17.85;;;;;;;6.34;100.00;99856.09;5201353;28;20055;-77
2021/03/11 00:30:40;;;;;;;30.15;16.95;;;;;;;6.34;100.00;99848.31;5201878;28;20117;-76
2021/03/11 00:33:10;;;;;;;33.33;17.88;;;;;;;6.32;100.00;99840.59;5201129;28;20029;-76
2021/03/11 00:35:40;;;;;;;29.55;18.15;;;;;;;6.29;100.00;99832.88;5201286;28;20163;-77
2021/03/11 00:38:10;;;;;;;28.40;17.27;;;;;;;6.30;100.00;99819.03;5202625;28;20036;-77
2021/03/11 00:40:41;;;;;;;32.60;16.75;;;;;;;6.29;100.00;99819.06;5208959;28;20024;-76
2021/03/11 00:43:14;;;;;;;30.90;17.25;;;;;;;6.33;100.00;99811.16;5202194;28;20021;-75
2021/03/11 00:45:47;;;;;;;29.52;17.05;;;;;;;6.25;100.00;99801.91;5201143;28;20029;-77
2021/03/11 00:48:18;;;;;;;28.15;17.17;;;;;;;6.21;100.00;99784.72;5200455;28;20510;-76
2021/03/11 00:50:48;;;;;;;26.05;16.05;;;;;;;6.21;100.00;99787.31;5196070;28;20029;-77
2021/03/11 00:53:18;;;;;;;29.02;17.33;;;;;;;6.19;100.00;99776.13;5199349;28;20080;-76
2021/03/11 00:55:48;;;;;;;26.77;16.58;;;;;;;6.15;100.00;99771.94;5204007;28;20100;-76
2021/03/11 00:58:19;;;;;;;26.48;15.50;;;;;;;6.13;100.00;99761.63;5201241;28;20029;-77
2021/03/11 01:00:49;;;;;;;28.05;16.83;;;;;;;6.15;100.00;99764.16;5200533;28;20383;-75
2021/03/11 01:03:19;;;;;;;27.38;16.55;;;;;;;6.09;100.00;99756.59;5200306;28;20060;-76
2021/03/11 01:05:50;;;;;;;29.58;16.90;;;;;;;6.11;100.00;99759.97;5204642;28;20021;-77
2021/03/11 01:08:20;;;;;;;25.83;15.80;;;;;;;6.04;100.00;99745.47;5204400;28;20029;-77
2021/03/11 01:10:51;;;;;;;24.58;15.25;;;;;;;6.01;100.00;99736.06;5209926;28;20147;-77
2021/03/11 01:13:21;;;;;;;26.30;16.02;;;;;;;6.08;100.00;99731.56;5213729;28;20037;-76
2021/03/11 01:15:52;;;;;;;26.88;15.75;;;;;;;6.06;100.00;99728.16;5225218;28;20114;-77
2021/03/11 01:18:24;;;;;;;27.08;14.75;;;;;;;6.03;100.00;99707.47;5224934;28;20040;-77
2021/03/11 01:20:54;;;;;;;26.30;15.52;;;;;;;6.02;100.00;99704.06;5224723;28;20146;-77
2021/03/11 01:23:24;;;;;;;24.05;14.45;;;;;;;5.99;100.00;99692.91;5214728;28;20533;-76
2021/03/11 01:25:55;;;;;;;25.30;14.13;;;;;;;5.91;100.00;99682.78;5207272;28;20060;-77
2021/03/11 01:28:25;;;;;;;22.80;14.73;;;;;;;5.94;100.00;99681.84;5203855;28;20038;-77
2021/03/11 01:30:55;;;;;;;24.65;15.93;;;;;;;5.92;100.00;99679.31;5204033;28;20100;-77
2021/03/11 01:33:25;;;;;;;23.50;15.38;;;;;;;5.84;100.00;99670.06;5186122;28;20253;-77
2021/03/11 01:35:56;;;;;;;21.92;14.45;;;;;;;5.83;100.00;99661.47;5204756;28;20521;-77
2021/03/11 01:38:26;;;;;;;24.58;15.50;;;;;;;5.92;100.00;99652.53;5203521;28;20103;-76
2021/03/11 01:40:56;;;;;;;23.67;14.80;;;;;;;5.94;100.00;99648.16;5209176;28;20033;-77
2021/03/11 01:43:27;;;;;;;25.15;14.80;;;;;;;5.84;100.00;99636.34;5210350;28;20028;-76
2021/03/11 01:45:57;;;;;;;23.17;14.23;;;;;;;5.84;100.00;99637.22;5202638;28;20120;-76
2021/03/11 01:48:27;;;;;;;22.05;13.98;;;;;;;5.90;100.00;99633.59;5203619;28;20025;-76
2021/03/11 01:50:57;;;;;;;22.13;14.40;;;;;;;5.87;100.00;99628.47;5191612;28;20128;-77
2021/03/11 01:53:29;;;;;;;22.80;13.95;;;;;;;5.82;100.00;99618.28;5196203;28;20456;-77
2021/03/11 01:55:59;;;;;;;21.55;13.48;;;;;;;5.80;100.00;99606.25;5206626;28;20395;-76
2021/03/11 01:58:29;;;;;;;21.95;13.93;;;;;;;5.73;100.00;99604.75;5203097;28;20044;-76
2021/03/11 02:01:00;;;;;;;21.95;13.63;;;;;;;5.68;100.00;99586.72;5202934;28;20036;-76
2021/03/11 02:03:30;;;;;;;22.95;13.93;;;;;;;5.68;100.00;99580.69;5199606;28;20538;-76
2021/03/11 02:06:02;;;;;;;22.95;13.85;;;;;;;5.69;100.00;99564.25;5201144;28;20061;-77
2021/03/11 02:08:33;;;;;;;21.17;13.45;;;;;;;5.65;100.00;99566.09;5204842;28;20503;-76
2021/03/11 02:11:04;;;;;;;21.48;13.57;;;;;;;5.60;100.00;99556.78;5206332;28;20079;-77
2021/03/11 02:13:41;;;;;;;21.48;13.50;;;;;;;5.59;100.00;99544.72;5211761;28;20063;-77
2021/03/11 02:16:21;;;;;;;22.95;14.45;;;;;;;5.62;100.00;99553.25;5203416;28;20138;-77
2021/03/11 02:19:29;;;;;;;23.20;14.30;;;;;;;5.58;100.00;99532.66;5203393;28;20495;-76
2021/03/11 02:22:12;;;;;;;22.98;14.18;;;;;;;5.53;100.00;99521.56;5204128;28;20060;-77
2021/03/11 02:24:58;;;;;;;22.88;15.05;;;;;;;5.54;100.00;99505.16;5203715;28;20053;-77
2021/03/11 02:27:50;;;;;;;24.17;14.75;;;;;;;5.58;100.00;99501.56;5204648;28;20025;-76
2021/03/11 02:30:20;;;;;;;25.50;14.80;;;;;;;5.58;100.00;99483.44;5214129;28;20615;-77
2021/03/11 02:32:51;;;;;;;23.88;14.73;;;;;;;5.59;100.00;99477.34;5202504;28;20025;-76
2021/03/11 02:35:22;;;;;;;22.77;14.52;;;;;;;5.57;100.00;99471.38;5216913;28;20017;-77
2021/03/11 02:37:55;;;;;;;24.98;15.40;;;;;;;5.52;100.00;99453.38;5211641;28;20078;-77
2021/03/11 02:40:29;;;;;;;23.95;14.80;;;;;;;5.59;100.00;99446.25;5199643;28;20132;-76
2021/03/11 02:43:03;;;;;;;27.13;17.02;;;;;;;5.57;100.00;99435.91;5210582;28;20098;-76
2021/03/11 02:45:33;;;;;;;27.98;16.40;;;;;;;5.63;100.00;99427.97;5212265;28;20460;-76
2021/03/11 02:48:06;;;;;;;27.00;16.15;;;;;;;5.65;100.00;99423.56;5198204;28;20045;-76
2021/03/11 02:50:39;;;;;;;27.35;15.07;;;;;;;5.68;100.00;99414.81;5203596;28;20402;-75
2021/03/11 02:53:11;;;;;;;25.75;15.57;;;;;;;5.69;100.00;99413.91;5202674;28;20066;-76
2021/03/11 02:55:42;;;;;;;23.63;15.05;;;;;;;5.70;100.00;99387.09;5200169;28;20021;-77
2021/03/11 02:58:14;;;;;;;24.98;15.57;;;;;;;5.73;100.00;99387.84;5202986;28;20040;-76
2021/03/11 03:00:44;;;;;;;26.27;15.90;;;;;;;5.80;100.00;99378.16;5202351;28;20040;-77
2021/03/11 03:03:15;;;;;;;23.33;14.70;;;;;;;5.84;100.00;99374.53;5202060;28;20499;-76
2021/03/11 03:05:49;;;;;;;25.77;15.50;;;;;;;5.88;100.00;99370.97;5202495;28;20079;-76
2021/03/11 03:08:20;;;;;;;24.00;14.88;;;;;;;5.88;100.00;99373.56;5197724;28;20033;-77
2021/03/11 03:10:53;;;;;;;24.98;15.05;;;;;;;5.88;100.00;99355.41;5209677;28;20078;-77
2021/03/11 03:13:25;;;;;;;23.48;14.32;;;;;;;5.97;100.00;99344.69;5211763;28;20082;-76
2021/03/11 03:15:57;;;;;;;24.55;14.55;;;;;;;6.04;100.00;99341.81;5212961;28;20033;-77
2021/03/11 03:18:30;;;;;;;22.42;14.35;;;;;;;6.02;100.00;99332.41;5208208;28;20041;-77
2021/03/11 03:21:04;;;;;;;22.80;13.90;;;;;;;6.10;100.00;99332.97;5203126;28;20116;-76
2021/03/11 03:23:35;;;;;;;22.27;14.10;;;;;;;6.12;100.00;99333.75;5202355;28;20079;-76
2021/03/11 03:26:07;;;;;;;22.75;13.35;;;;;;;6.12;100.00;99331.16;5202099;28;20443;-77
2021/03/11 03:28:37;;;;;;;24.10;13.55;;;;;;;6.12;100.00;99313.84;5202071;28;20068;-77
2021/03/11 03:31:07;;;;;;;21.50;13.45;;;;;;;6.14;100.00;99309.47;5242168;22;20060;-79
2021/03/11 03:33:38;;;;;;;20.60;13.00;;;;;;;6.23;100.00;99311.69;5233769;28;20017;-79
2021/03/11 03:36:08;;;;;;;21.48;13.50;;;;;;;6.22;100.00;99298.81;5216295;28;20071;-79
2021/03/11 03:38:38;;;;;;;20.58;13.10;;;;;;;6.26;100.00;99290.81;5234215;28;20033;-79
2021/03/11 03:41:10;;;;;;;22.05;13.18;;;;;;;6.28;100.00;99286.41;5230774;28;20180;-79
2021/03/11 03:43:41;;;;;;;22.70;13.50;;;;;;;6.26;100.00;99279.63;5216718;28;20033;-79
2021/03/11 03:46:14;;;;;;;19.05;12.20;;;;;;;6.30;100.00;99278.59;5215169;28;20052;-79
2021/03/11 03:48:47;;;;;;;24.00;13.52;;;;;;;6.32;100.00;99268.97;5233778;28;20021;-79
2021/03/11 03:51:23;;;;;;;19.67;12.55;;;;;;;6.30;100.00;99255.25;5233380;28;20021;-79
2021/03/11 03:54:03;;;;;;;22.25;13.00;;;;;;;6.31;100.00;99250.00;5231709;28;20024;-79
2021/03/11 03:56:46;;;;;;;21.83;12.90;;;;;;;6.36;100.00;99229.03;5214696;28;20079;-79
2021/03/11 03:59:20;;;;;;;19.80;12.55;;;;;;;6.37;100.00;99234.19;5218173;28;20062;-79
2021/03/11 04:01:56;;;;;;;20.30;12.63;;;;;;;6.49;100.00;99228.50;5233024;28;20076;-79
2021/03/11 04:04:28;;;;;;;21.27;12.80;;;;;;;6.55;100.00;99210.06;5219916;28;20028;-78
2021/03/11 04:07:00;;;;;;;19.52;13.13;;;;;;;6.59;100.00;99218.59;5237244;28;20564;-79
2021/03/11 04:09:31;;;;;;;21.23;12.50;;;;;;;6.69;100.00;99212.09;5213322;28;20033;-79
2021/03/11 04:12:03;;;;;;;22.05;13.10;;;;;;;6.64;100.00;99204.53;5245551;28;20714;-79
2021/03/11 04:14:36;;;;;;;19.30;12.63;;;;;;;6.65;100.00;99194.97;5222892;28;20028;-79
2021/03/11 04:17:07;;;;;;;20.00;13.13;;;;;;;6.68;100.00;99206.06;5218423;28;20059;-80
2021/03/11 04:19:39;;;;;;;19.45;12.40;;;;;;;6.67;100.00;99200.94;5237501;28;20047;-79
2021/03/11 04:22:09;;;;;;;20.38;12.70;;;;;;;6.67;100.00;99191.41;5231396;28;20237;-80
2021/03/11 04:24:41;;;;;;;20.17;12.55;;;;;;;6.76;100.00;99185.00;5200731;28;20060;-79
2021/03/11 04:27:12;;;;;;;21.00;12.50;;;;;;;6.73;100.00;99177.34;5218039;28;20039;-79
2021/03/11 04:29:42;;;;;;;19.83;12.32;;;;;;;6.70;100.00;99174.84;5215960;28;20034;-80
2021/03/11 04:32:13;;;;;;;19.30;12.02;;;;;;;6.75;100.00;99160.75;5197986;28;20022;-80
2021/03/11 04:34:44;;;;;;;19.42;12.50;;;;;;;6.76;100.00;99152.06;5215956;28;20029;-79
2021/03/11 04:37:15;;;;;;;21.27;13.18;;;;;;;6.81;100.00;99147.53;5218193;28;20028;-79
2021/03/11 04:39:45;;;;;;;19.13;11.80;;;;;;;6.73;100.00;99136.63;5216592;28;20044;-80
2021/03/11 04:42:16;;;;;;;19.70;12.52;;;;;;;6.80;100.00;99135.44;5250447;28;20069;-81
2021/03/11 04:44:47;;;;;;;18.27;11.65;;;;;;;6.84;100.00;99138.75;5231476;28;20021;-79
2021/03/11 04:47:18;;;;;;;20.05;12.00;;;;;;;6.81;100.00;99138.91;5243263;28;20032;-79
2021/03/11 04:49:48;;;;;;;22.90;12.02;;;;;;;6.83;100.00;99143.13;5242181;28;20053;-80
2021/03/11 04:52:19;;;;;;;19.02;11.50;;;;;;;6.86;100.00;99148.19;5218839;28;20024;-80
2021/03/11 04:54:50;;;;;;;18.63;11.63;;;;;;;6.90;100.00;99139.34;5238008;28;20031;-80
2021/03/11 04:57:20;;;;;;;18.45;11.50;;;;;;;6.97;100.00;99132.13;5224983;28;20040;-79
2021/03/11 04:59:51;;;;;;;19.60;11.85;;;;;;;6.86;100.00;99117.03;5221895;28;20043;-79
2021/03/11 05:02:25;;;;;;;19.80;12.05;;;;;;;6.93;100.00;99120.19;5240153;28;20047;-80
2021/03/11 05:04:58;;;;;;;17.92;11.35;;;;;;;6.94;100.00;99114.09;5238456;28;20021;-80
2021/03/11 05:07:28;;;;;;;19.73;11.32;;;;;;;7.00;100.00;99112.06;5230960;28;20036;-79
2021/03/11 05:09:59;;;;;;;18.40;11.35;;;;;;;7.02;100.00;99101.59;5242745;28;20043;-80
2021/03/11 05:12:29;;;;;;;18.17;11.65;;;;;;;6.98;100.00;99105.25;5226826;28;20040;-79
2021/03/11 05:14:59;;;;;;;16.88;11.70;;;;;;;7.04;100.00;99094.56;5241345;28;20037;-79
2021/03/11 05:17:29;;;;;;;17.23;11.80;;;;;;;7.01;100.00;99089.53;5223066;28;20091;-80
2021/03/11 05:20:00;;;;;;;18.65;11.55;;;;;;;7.07;100.00;99091.84;5227445;28;20044;-80
2021/03/11 05:22:30;;;;;;;19.13;11.80;;;;;;;7.09;100.00;99088.25;5226220;28;20023;-80
2021/03/11 05:25:00;;;;;;;18.88;11.60;;;;;;;7.16;100.00;99068.06;5242089;28;20079;-80
2021/03/11 05:27:31;;;;;;;18.27;11.55;;;;;;;7.22;100.00;99063.41;5224360;28;20045;-79
2021/03/11 05:30:03;;;;;;;17.77;11.10;;;;;;;7.17;100.00;99064.53;5225031;28;20229;-80
2021/03/11 05:32:33;;;;;;;19.30;11.32;;;;;;;7.17;100.00;99075.78;5225155;28;20505;-79
2021/03/11 05:35:05;;;;;;;18.55;11.50;;;;;;;7.22;100.00;99069.44;5242411;28;20021;-80
2021/03/11 05:37:39;;;;;;;17.95;11.68;;;;;;;7.29;100.00;99077.81;5242585;28;20067;-79
2021/03/11 05:40:12;;;;;;;17.13;11.52;;;;;;;7.24;100.00;99071.16;5225032;28;20021;-80
2021/03/11 05:42:47;;;;;;;22.00;11.73;;;;;;;7.27;100.00;99071.00;5234885;28;20017;-80
2021/03/11 05:45:18;;;;;;;22.27;11.73;;;;;;;7.31;100.00;99066.44;5220327;28;20044;-79
2021/03/11 05:47:51;;;;;;;20.92;11.95;;;;;;;7.33;100.00;99068.97;5230656;28;20071;-80
2021/03/11 05:50:21;;;;;;;22.80;12.38;;;;;;;7.35;100.00;99057.56;5236300;28;20052;-80
2021/03/11 05:52:55;;;;;;;19.30;11.65;;;;;;;7.37;100.00;99050.53;5219901;28;20033;-80
2021/03/11 05:55:25;;;;;;;20.58;12.30;;;;;;;7.45;100.00;99053.63;5210258;28;20026;-80
2021/03/11 05:57:56;;;;;;;19.10;11.77;;;;;;;7.36;100.00;99051.47;5203348;28;20040;-80
2021/03/11 06:00:27;;;;;;;21.83;13.25;;;;;;;7.36;100.00;99051.47;5250059;28;20017;-80
2021/03/11 06:02:59;;;;;;;19.40;11.63;;;;;;;7.44;100.00;99044.16;5249030;28;20021;-79
2021/03/11 06:05:31;;;;;;;22.55;12.27;;;;;;;7.45;100.00;99034.59;5223588;28;20021;-79
2021/03/11 06:08:05;;;;;;;20.75;12.82;;;;;;;7.46;100.00;99037.13;5219812;28;20419;-80
2021/03/11 06:10:38;;;;;;;20.48;12.27;;;;;;;7.42;100.00;99046.00;5220556;28;20155;-80
2021/03/11 06:13:10;;;;;;;21.83;12.32;;;;;;;7.44;100.00;99040.72;5225286;28;20025;-79
2021/03/11 06:15:41;;;;;;;19.50;12.00;;;;;;;7.40;100.00;99046.97;5222561;28;20021;-80
2021/03/11 06:18:12;;;;;;;21.83;12.15;;;;;;;7.58;100.00;99046.94;5242600;28;20064;-80
2021/03/11 06:20:42;;;;;;;18.55;11.25;;;;;;;7.48;100.00;99030.09;5224690;28;20025;-80
2021/03/11 06:23:14;;;;;;;17.33;11.18;;;;;;;7.47;100.00;99031.03;5225042;28;20021;-80
2021/03/11 06:25:44;;;;;;;19.55;11.95;;;;;;;7.42;100.00;99027.81;5242508;28;20036;-80
2021/03/11 06:28:14;;;;;;;18.85;11.40;;;;;;;7.43;100.00;99044.22;5225523;28;20033;-80
2021/03/11 06:30:45;;;;;;;22.58;11.98;;;;;;;7.48;100.00;99045.69;5224792;28;20093;-79
2021/03/11 06:33:15;;;;;;;20.55;11.60;;;;;;;7.49;100.00;99042.19;5224212;28;20060;-80
2021/03/11 06:35:45;;;;;;;19.95;11.63;;;;;;;7.52;100.00;99026.44;5215023;28;20029;-80
2021/03/11 06:38:28;;;;;;;17.98;11.20;;;;;;;7.47;100.00;99028.41;5222018;28;20031;-81
2021/03/11 06:40:58;;;;;;;20.50;11.80;;;;;;;7.52;100.00;99018.63;5221804;28;20108;-80
2021/03/11 06:43:29;;;;;;;20.00;11.15;;;;;;;7.49;100.00;99017.97;5238002;28;20033;-79
2021/03/11 06:46:09;;;;;;;20.05;11.43;;;;;;;7.53;100.00;99007.31;5239761;28;20036;-80
2021/03/11 06:48:39;;;;;;;20.65;11.18;;;;;;;7.50;100.00;99015.28;5224831;28;20088;-80
2021/03/11 06:51:20;;;;;;;18.50;10.80;;;;;;;7.44;100.00;99005.19;5225512;28;20039;-79
2021/03/11 06:53:58;;;;;;;18.33;11.48;;;;;;;7.48;100.00;99016.25;5224154;28;20020;-80
2021/03/11 06:56:29;;;;;;;15.68;10.00;;;;;;;7.48;100.00;99013.66;5242084;28;20024;-80
2021/03/11 06:59:01;;;;;;;17.63;11.40;;;;;;;7.47;100.00;99009.38;5228705;28;20021;-80
2021/03/11 07:01:34;;;;;;;15.27;10.38;;;;;;;7.52;100.00;99008.25;5241053;28;20036;-80
2021/03/11 07:04:04;;;;;;;15.55;10.38;;;;;;;7.59;100.00;98996.66;5228692;28;20032;-80
2021/03/11 07:06:37;;;;;;;19.23;10.82;;;;;;;7.56;100.00;98986.38;5225962;28;20509;-80
2021/03/11 07:09:07;;;;;;;16.40;10.27;;;;;;;7.55;100.00;98989.88;5223851;28;20071;-80
2021/03/11 07:11:54;;;;;;;17.15;10.75;;;;;;;7.58;100.00;98981.97;5225292;28;20017;-80
2021/03/11 07:14:26;;;;;;;16.70;10.82;;;;;;;7.56;100.00;98973.38;5220508;28;20028;-81
2021/03/11 07:17:19;;;;;;;17.98;10.75;;;;;;;7.60;100.00;98967.13;5229038;28;20058;-80
2021/03/11 07:20:08;;;;;;;19.08;10.65;;;;;;;7.62;100.00;98970.50;5227258;28;20032;-80
2021/03/11 07:22:40;;;;;;;21.67;11.25;;;;;;;7.58;100.00;98968.97;5245268;28;20048;-80
2021/03/11 07:25:30;;;;;;;18.83;11.32;;;;;;;7.60;100.00;98982.72;5241823;28;20080;-81
2021/03/11 07:28:06;;;;;;;18.17;11.30;;;;;;;7.56;100.00;98975.97;5241402;28;20116;-80
2021/03/11 07:30:54;;;;;;;19.13;11.40;;;;;;;7.57;100.00;98963.84;5223722;28;20116;-80
2021/03/11 07:33:26;;;;;;;20.15;12.23;;;;;;;7.52;100.00;98961.44;5204702;28;20029;-81
2021/03/11 07:36:04;;;;;;;23.77;11.45;;;;;;;7.42;100.00;98947.25;5217444;28;20031;-81
2021/03/11 07:38:36;;;;;;;20.30;12.13;;;;;;;7.44;100.00;98953.22;5220625;28;20021;-81
2021/03/11 07:41:08;;;;;;;23.45;11.98;;;;;;;7.41;100.00;98947.31;5250324;28;20049;-79
2021/03/11 07:43:39;;;;;;;20.60;11.73;;;;;;;7.35;100.00;98925.06;5220136;28;20044;-81
2021/03/11 07:46:09;;;;;;;21.15;11.70;;;;;;;7.42;100.00;98910.88;5224489;28;20040;-81
2021/03/11 07:48:40;;;;;;;18.80;12.20;;;;;;;7.41;100.00;98918.72;5239202;28;20084;-81
2021/03/11 07:51:11;;;;;;;19.48;11.77;;;;;;;7.44;100.00;98937.63;5238109;28;20023;-80
2021/03/11 07:53:41;;;;;;;21.48;11.27;;;;;;;7.49;100.00;98935.63;5219654;28;20013;-81
2021/03/11 07:56:12;;;;;;;18.95;10.98;;;;;;;7.57;100.00;98910.09;5219492;28;20394;-81
2021/03/11 07:58:44;;;;;;;16.85;10.45;;;;;;;7.59;100.00;98923.88;5237222;28;20029;-80
2021/03/11 08:01:15;;;;;;;17.98;10.98;;;;;;;7.57;100.00;98915.31;5221260;28;20089;-81
2021/03/11 08:03:49;;;;;;;17.95;9.70;;;;;;;7.60;100.00;98916.88;5219114;28;20044;-80
2021/03/11 08:06:21;;;;;;;16.83;9.90;;;;;;;7.68;100.00;98901.78;5218966;28;20196;-80
2021/03/11 08:08:51;;;;;;;17.17;10.02;;;;;;;7.75;100.00;98916.97;5217866;28;20074;-80
2021/03/11 08:11:42;;;;;;;15.60;9.70;;;;;;;7.78;100.00;98913.38;5233393;28;20245;-79
2021/03/11 08:14:15;;;;;;;13.80;8.65;;;;;;;7.92;100.00;98905.69;5230462;28;20029;-80
2021/03/11 08:16:46;;;;;;;13.82;8.00;;;;;;;8.02;100.00;98920.75;5230592;28;20032;-79
2021/03/11 08:19:38;;;;;;;13.02;8.73;;;;;;;8.01;100.00;98902.66;5219949;28;20025;-81
2021/03/11 08:22:09;;;;;;;13.32;8.45;;;;;;;8.10;100.00;98899.53;5217954;28;20044;-80
2021/03/11 08:24:45;;;;;;;11.63;7.93;;;;;;;8.09;100.00;98898.72;5234401;28;20083;-80
2021/03/11 08:27:30;;;;;;;15.70;7.75;;;;;;;8.18;100.00;98895.66;5213867;28;20017;-81
2021/03/11 08:30:00;;;;;;;11.60;7.07;;;;;;;8.18;100.00;98893.06;5229545;28;20534;-80
2021/03/11 08:32:47;;;;;;;11.63;7.30;;;;;;;8.30;100.00;98897.63;5221975;28;20035;-80
2021/03/11 08:35:27;;;;;;;9.73;6.28;;;;;;;8.43;100.00;98883.03;5222046;28;20082;-80
2021/03/11 08:38:00;;;;;;;9.70;6.47;;;;;;;8.48;100.00;98891.41;5228532;28;20048;-81
2021/03/11 08:40:38;;;;;;;10.48;6.57;;;;;;;8.60;100.00;98880.34;5215567;28;20116;-80
2021/03/11 08:43:08;;;;;;;12.23;6.72;;;;;;;8.68;100.00;98885.13;5206760;28;20035;-81
2021/03/11 08:45:39;;;;;;;11.70;6.22;;;;;;;8.65;100.00;98877.47;5227273;28;20953;-81
2021/03/11 08:48:40;;;;;;;9.10;6.10;;;;;;;8.76;100.00;98878.56;5238657;28;20025;-80
2021/03/11 08:51:17;;;;;;;8.02;5.53;;;;;;;8.70;100.00;98875.47;5236496;28;20461;-80
2021/03/11 08:53:50;;;;;;;8.80;5.57;;;;;;;8.77;100.00;98872.47;5237715;28;20024;-81
2021/03/11 08:56:20;;;;;;;7.65;5.25;;;;;;;8.89;100.00;98860.50;5224727;28;20029;-81
2021/03/11 08:58:53;;;;;;;7.77;5.30;;;;;;;8.94;100.00;98863.69;5234507;28;20017;-81
2021/03/11 09:01:44;;;;;;;7.40;4.97;;;;;;;9.14;100.00;98843.41;5225091;28;20727;-81
2021/03/11 09:04:20;;;;;;;8.38;5.50;;;;;;;9.67;100.00;98835.88;5222363;28;20025;-80
2021/03/11 09:06:54;;;;;;;9.30;5.15;;;;;;;10.01;98.31;98830.31;5226197;28;20029;-81
2021/03/11 09:09:52;;;;;;;7.60;4.75;;;;;;;11.27;92.97;98833.47;5207992;28;20036;-81
2021/03/11 09:12:36;;;;;;;7.53;4.63;;;;;;;13.98;84.23;98801.38;5217788;28;20032;-81
2021/03/11 09:15:08;;;;;;;6.75;4.00;;;;;;;14.49;77.96;98784.16;5218679;28;20053;-80
2021/03/11 09:17:41;;;;;;;5.43;3.67;;;;;;;14.27;79.76;98794.69;5220675;28;20032;-80
2021/03/11 09:20:15;;;;;;;5.97;3.80;;;;;;;14.33;80.46;98780.22;5223018;28;20032;-81
2021/03/11 09:22:48;;;;;;;5.85;3.97;;;;;;;13.04;82.68;98779.81;5239663;28;20044;-80
2021/03/11 09:25:21;;;;;;;5.90;4.05;;;;;;;12.73;85.37;98785.59;5225284;28;20025;-81
2021/03/11 09:28:03;;;;;;;5.25;3.72;;;;;;;12.06;86.03;98783.47;5220101;28;20044;-80
2021/03/11 09:30:36;;;;;;;6.40;4.20;;;;;;;11.94;88.67;98786.13;5261885;22;20061;-77
2021/03/11 09:33:12;;;;;;;5.53;3.80;;;;;;;12.18;90.14;98766.91;5222715;28;20506;-77
2021/03/11 09:35:42;;;;;;;;;;;;;;;11.66;90.08;98768.88;5219748;28;20108;-77
2021/03/11 09:38:19;;;;;;;8.17;3.90;;;;;;;11.16;90.50;98779.25;5222055;28;20035;-76
2021/03/11 09:40:52;;;;;;;9.07;3.75;;;;;;;11.02;91.64;98778.47;5221034;28;20828;-77
2021/03/11 09:43:27;;;;;;;6.88;3.88;;;;;;;11.00;92.55;98776.94;5223157;28;20125;-77
2021/03/11 09:46:06;;;;;;;7.43;4.13;;;;;;;10.98;93.53;98776.16;5223190;28;20602;-77
2021/03/11 09:48:51;;;;;;;6.05;4.20;;;;;;;10.90;94.44;98770.63;5223884;28;20036;-76
2021/03/11 09:51:25;;;;;;;6.10;3.78;;;;;;;10.82;94.53;98765.06;5223466;28;20127;-76
2021/03/11 09:54:06;;;;;;;5.68;4.10;;;;;;;10.72;94.99;98761.38;5221376;28;20028;-77
2021/03/11 09:56:42;;;;;;;6.28;4.20;;;;;;;11.21;93.91;98751.03;5221432;28;20021;-76
2021/03/11 09:59:15;;;;;;;6.30;3.63;;;;;;;11.88;92.77;98735.03;5220840;28;20031;-76
2021/03/11 10:01:47;;;;;;;5.45;3.38;;;;;;;12.23;90.68;98722.91;5223632;28;20056;-77
2021/03/11 10:04:23;;;;;;;5.15;3.20;;;;;;;12.25;89.68;98705.28;5217810;28;20025;-77
2021/03/11 10:06:55;;;;;;;6.20;3.65;;;;;;;12.58;91.05;98697.59;5223483;28;20029;-77
2021/03/11 10:09:36;;;;;;;4.53;3.13;;;;;;;12.64;88.90;98694.50;5215416;28;20171;-76
2021/03/11 10:12:07;;;;;;;5.13;3.08;;;;;;;12.79;88.81;98695.19;5222569;28;20060;-76
2021/03/11 10:14:37;;;;;;;4.53;2.85;;;;;;;12.80;89.56;98686.38;5222333;28;20028;-76
2021/03/11 10:17:18;;;;;;;5.53;3.17;;;;;;;12.87;88.74;98680.56;5222331;28;20453;-77
2021/03/11 10:19:48;;;;;;;5.70;2.95;;;;;;;12.76;87.57;98688.38;5223381;28;20013;-76
2021/03/11 10:22:22;;;;;;;4.80;2.92;;;;;;;12.58;86.63;98679.25;5213165;28;20064;-76
2021/03/11 10:24:53;;;;;;;5.88;3.10;;;;;;;12.63;87.82;98669.25;5215889;28;20494;-76
2021/03/11 10:27:32;;;;;;;5.40;2.65;;;;;;;12.80;87.05;98665.41;5222375;28;20183;-77
2021/03/11 10:30:10;;;;;;;4.80;3.10;;;;;;;12.82;86.70;98669.56;5221286;28;20036;-76
2021/03/11 10:32:43;;;;;;;7.22;2.95;;;;;;;13.02;87.59;98676.78;5217346;28;20037;-77
2021/03/11 10:35:31;;;;;;;6.90;3.53;;;;;;;12.93;85.99;98664.38;5220559;28;20025;-77
2021/03/11 10:38:29;;;;;;;6.18;3.05;;;;;;;12.58;86.18;98647.81;5224686;28;20043;-77
2021/03/11 10:41:12;;;;;;;7.60;2.70;;;;;;;12.09;87.87;98654.97;5223658;28;20360;-77
2021/03/11 10:43:44;;;;;;;5.50;2.60;;;;;;;12.03;88.30;98638.88;5222459;28;20481;-76
2021/03/11 10:46:27;;;;;;;4.95;2.70;;;;;;;12.06;88.26;98626.41;5230416;28;20029;-76
2021/03/11 10:48:57;;;;;;;4.40;2.33;;;;;;;11.93;89.12;98641.31;5225555;28;20036;-76
2021/03/11 10:51:30;;;;;;;4.45;2.55;;;;;;;11.99;89.49;98619.91;5223470;28;20037;-76
2021/03/11 10:54:02;;;;;;;4.75;2.65;;;;;;;11.84;90.08;98626.28;5222552;28;20033;-77
2021/03/11 10:56:32;;;;;;;5.03;2.85;;;;;;;11.86;90.15;98627.00;5223456;28;20422;-77
2021/03/11 10:59:05;;;;;;;4.65;2.80;;;;;;;11.66;90.67;98614.50;5222352;28;20072;-76
2021/03/11 11:01:40;;;;;;;3.78;2.50;;;;;;;11.53;91.92;98631.13;5222079;28;20087;-77
2021/03/11 11:04:10;;;;;;;4.72;2.50;;;;;;;11.40;91.68;98625.06;5222383;28;20044;-76
2021/03/11 11:06:41;;;;;;;5.43;2.83;;;;;;;11.56;92.34;98605.63;5222602;28;20455;-76
2021/03/11 11:09:11;;;;;;;4.10;2.90;;;;;;;11.95;91.35;98605.38;5216098;28;20041;-76
2021/03/11 11:11:41;;;;;;;5.72;2.67;;;;;;;12.01;90.79;98617.19;5219483;28;20364;-76
2021/03/11 11:14:11;;;;;;;3.92;2.40;;;;;;;11.95;90.42;98618.47;5209246;28;20483;-76
2021/03/11 11:16:41;;;;;;;4.03;2.30;;;;;;;12.01;90.58;98618.03;5220088;28;20435;-77
2021/03/11 11:19:12;;;;;;;5.88;2.30;;;;;;;11.74;90.61;98624.41;5222236;28;20056;-76
2021/03/11 11:21:42;;;;;;;5.35;2.70;;;;;;;11.72;91.51;98621.91;5222162;28;20090;-77
2021/03/11 11:24:12;;;;;;;4.18;2.17;;;;;;;11.49;94.20;98622.69;5221730;28;20036;-77
2021/03/11 11:26:43;;;;;;;4.50;2.33;;;;;;;11.45;95.43;98633.47;5220330;28;20450;-76
2021/03/11 11:29:13;;;;;;;5.30;2.38;;;;;;;11.42;97.77;98626.66;5214320;28;20041;-77
2021/03/11 11:31:43;;;;;;;4.13;2.40;;;;;;;11.27;100.00;98635.56;5219554;28;20025;-77
2021/03/11 11:34:14;;;;;;;4.65;2.60;;;;;;;11.00;100.00;98638.41;5213903;28;20375;-76
2021/03/11 11:36:44;;;;;;;3.78;2.53;;;;;;;10.72;100.00;98630.75;5222064;28;20056;-76
2021/03/11 11:39:15;;;;;;;3.85;2.22;;;;;;;10.74;100.00;98649.75;5221397;28;20083;-77
2021/03/11 11:41:48;;;;;;;6.35;2.50;;;;;;;10.61;100.00;98635.84;5221403;28;20115;-77
2021/03/11 11:44:20;;;;;;;4.78;2.55;;;;;;;10.52;100.00;98632.06;5218779;28;20029;-77
2021/03/11 11:46:50;;;;;;;4.88;2.50;;;;;;;10.64;100.00;98628.66;5221678;28;20025;-77
2021/03/11 11:49:20;;;;;;;3.13;2.30;;;;;;;10.76;100.00;98635.66;5221097;28;20033;-76